Hinckley, MN

11:36 PM CDT on September 02, 2015 (GMT -0500)
Mission Creek/Brook Park | | Change Station
CLOSE
Current Station
Personal Weather Station
Location: Hinckley, MN
Elevation: 969 ft
Nearby Weather Stations

Elev 969 ft 45.98 °N, 93.00 °W | Updated 18 seconds ago

Overcast
Overcast
67.6 °F
Feels Like 67.6 °F
N
4.0
Wind Variable Wind from ENE
Gusts 5.0 mph

Today
High -- | Low -- °F
--% Chance of Precip.
Yesterday
High -- | Low -- °F
Precip. -- in
6:33 AM 7:48 PM
Waning Gibbous, 74% visible
Pressure 29.95 in
Visibility 10.0 miles
Clouds Overcast 2800 ft
Dew Point 66 °F
Humidity 95%
Rainfall 0.07 in
Snow Depth Not available.
UV 0 out of 12
Pollen 10.00 out of 12
Air Quality Not available.
Flu Activity Not available.
METAR K04W 030413Z AUTO 00000KT 10SM OVC028 20/19 A2995 RMK AO2
Pressure 29.95 in
Visibility 10.0 miles
Clouds Overcast 2800 ft
Dew Point 66 °F
Humidity 95%
Rainfall 0.07 in
Snow Depth Not available.
UV 0 out of 12
Pollen 10.00 out of 12
Air Quality Not available.
Flu Activity Not available.
METAR K04W 030413Z AUTO 00000KT 10SM OVC028 20/19 A2995 RMK AO2

10-Day Weather Forecast

×

Almanac

Astronomy

Sep. 02, 2015 Rise Set
Actual Time
Civil Twilight
Nautical Twilight
Astronomical Twilight
Moon
Length of Visible Light
Length of Day
Tomorrow will be .
, % of the Moon is Illuminated

Today's Extremes

State Highs State Lows

Community

WunderPhotos

Upload Photos

1,851,913 photos uploaded!

WunderBlogs® & News

Nearby

Air Quality

  Air Quality AQ Index Pollutant
Not available.

Snow Depth

Station Depth Elevation

Earthquake Activity

City Distance Mag. Time & Date
Minimum magnitude displayed is 2.5.

Coastal Water Temperatures

Place Temperature

Stations

Nearby Weather Stations

Station Location Temp. Windchill Dew Point Humidity Wind Precip. Elev Updated Type